sensor_id;sensor_type;location;lat;lon;timestamp;P1;durP1;ratioP1;P2;durP2;ratioP2
8066;SDS011;4076;48.076;9.118;2023-08-31T00:01:38;4.27;;;3.93;;
8066;SDS011;4076;48.076;9.118;2023-08-31T00:04:05;4.43;;;4.03;;
8066;SDS011;4076;48.076;9.118;2023-08-31T00:06:33;4.33;;;4.03;;
8066;SDS011;4076;48.076;9.118;2023-08-31T00:08:59;3.33;;;3.03;;
8066;SDS011;4076;48.076;9.118;2023-08-31T00:11:24;4.80;;;3.97;;
8066;SDS011;4076;48.076;9.118;2023-08-31T00:13:51;5.50;;;5.13;;
8066;SDS011;4076;48.076;9.118;2023-08-31T00:16:17;4.70;;;4.30;;
8066;SDS011;4076;48.076;9.118;2023-08-31T00:18:48;3.90;;;3.43;;
8066;SDS011;4076;48.076;9.118;2023-08-31T00:21:14;5.23;;;4.60;;
8066;SDS011;4076;48.076;9.118;2023-08-31T00:23:39;3.90;;;3.60;;
8066;SDS011;4076;48.076;9.118;2023-08-31T00:26:05;3.13;;;2.93;;
8066;SDS011;4076;48.076;9.118;2023-08-31T00:28:31;3.03;;;2.80;;
8066;SDS011;4076;48.076;9.118;2023-08-31T00:30:59;3.07;;;2.87;;
8066;SDS011;4076;48.076;9.118;2023-08-31T00:33:28;3.13;;;2.77;;
8066;SDS011;4076;48.076;9.118;2023-08-31T00:35:54;3.03;;;2.83;;
8066;SDS011;4076;48.076;9.118;2023-08-31T00:38:21;3.00;;;2.80;;
8066;SDS011;4076;48.076;9.118;2023-08-31T00:40:46;3.07;;;2.77;;
8066;SDS011;4076;48.076;9.118;2023-08-31T00:43:15;2.90;;;2.70;;
8066;SDS011;4076;48.076;9.118;2023-08-31T00:45:41;2.40;;;2.30;;
8066;SDS011;4076;48.076;9.118;2023-08-31T00:48:07;3.87;;;2.57;;
8066;SDS011;4076;48.076;9.118;2023-08-31T00:50:33;3.07;;;2.87;;
8066;SDS011;4076;48.076;9.118;2023-08-31T00:52:59;3.53;;;3.30;;
8066;SDS011;4076;48.076;9.118;2023-08-31T00:55:24;4.60;;;3.77;;
8066;SDS011;4076;48.076;9.118;2023-08-31T00:57:51;4.20;;;3.83;;
8066;SDS011;4076;48.076;9.118;2023-08-31T01:00:17;4.20;;;3.97;;
8066;SDS011;4076;48.076;9.118;2023-08-31T01:05:29;2.73;;;2.17;;
8066;SDS011;4076;48.076;9.118;2023-08-31T01:11:09;3.60;;;3.40;;
8066;SDS011;4076;48.076;9.118;2023-08-31T01:14:03;3.80;;;3.50;;
8066;SDS011;4076;48.076;9.118;2023-08-31T01:16:36;3.40;;;3.20;;
8066;SDS011;4076;48.076;9.118;2023-08-31T01:19:08;3.10;;;2.90;;
8066;SDS011;4076;48.076;9.118;2023-08-31T01:21:57;3.27;;;3.07;;
8066;SDS011;4076;48.076;9.118;2023-08-31T01:24:28;2.90;;;2.70;;
8066;SDS011;4076;48.076;9.118;2023-08-31T01:26:54;2.50;;;2.30;;
8066;SDS011;4076;48.076;9.118;2023-08-31T01:29:20;2.77;;;2.57;;
8066;SDS011;4076;48.076;9.118;2023-08-31T01:31:45;2.23;;;2.00;;
8066;SDS011;4076;48.076;9.118;2023-08-31T01:34:11;2.70;;;2.50;;
8066;SDS011;4076;48.076;9.118;2023-08-31T01:36:38;2.13;;;2.03;;
8066;SDS011;4076;48.076;9.118;2023-08-31T01:41:34;2.20;;;2.03;;
8066;SDS011;4076;48.076;9.118;2023-08-31T01:44:01;2.90;;;2.67;;
8066;SDS011;4076;48.076;9.118;2023-08-31T01:46:27;3.47;;;3.17;;
8066;SDS011;4076;48.076;9.118;2023-08-31T01:48:54;3.13;;;2.40;;
8066;SDS011;4076;48.076;9.118;2023-08-31T01:51:19;3.87;;;2.90;;
8066;SDS011;4076;48.076;9.118;2023-08-31T01:53:45;2.83;;;2.63;;
8066;SDS011;4076;48.076;9.118;2023-08-31T01:56:10;3.23;;;3.03;;
8066;SDS011;4076;48.076;9.118;2023-08-31T01:58:36;2.13;;;2.03;;
8066;SDS011;4076;48.076;9.118;2023-08-31T02:01:02;3.03;;;2.73;;
8066;SDS011;4076;48.076;9.118;2023-08-31T02:03:27;2.87;;;2.67;;
8066;SDS011;4076;48.076;9.118;2023-08-31T02:05:53;4.13;;;3.80;;
8066;SDS011;4076;48.076;9.118;2023-08-31T02:08:19;3.43;;;3.13;;
8066;SDS011;4076;48.076;9.118;2023-08-31T02:10:46;3.90;;;3.60;;
8066;SDS011;4076;48.076;9.118;2023-08-31T02:13:13;3.73;;;3.37;;
8066;SDS011;4076;48.076;9.118;2023-08-31T02:15:39;3.40;;;3.17;;
8066;SDS011;4076;48.076;9.118;2023-08-31T02:18:05;3.37;;;3.17;;
8066;SDS011;4076;48.076;9.118;2023-08-31T02:20:32;3.10;;;2.90;;
8066;SDS011;4076;48.076;9.118;2023-08-31T02:22:57;2.03;;;1.93;;
8066;SDS011;4076;48.076;9.118;2023-08-31T02:25:23;2.97;;;2.77;;
8066;SDS011;4076;48.076;9.118;2023-08-31T02:27:48;4.63;;;3.07;;
8066;SDS011;4076;48.076;9.118;2023-08-31T02:30:14;2.30;;;2.20;;
8066;SDS011;4076;48.076;9.118;2023-08-31T02:32:40;7.73;;;3.80;;
8066;SDS011;4076;48.076;9.118;2023-08-31T02:35:05;2.80;;;2.60;;
8066;SDS011;4076;48.076;9.118;2023-08-31T02:37:32;3.63;;;3.40;;
8066;SDS011;4076;48.076;9.118;2023-08-31T02:39:57;2.77;;;2.57;;
8066;SDS011;4076;48.076;9.118;2023-08-31T02:42:23;2.33;;;2.13;;
8066;SDS011;4076;48.076;9.118;2023-08-31T02:44:51;2.73;;;2.43;;
8066;SDS011;4076;48.076;9.118;2023-08-31T02:47:18;2.73;;;2.53;;
8066;SDS011;4076;48.076;9.118;2023-08-31T02:49:44;3.20;;;2.90;;
8066;SDS011;4076;48.076;9.118;2023-08-31T02:52:10;2.27;;;2.10;;
8066;SDS011;4076;48.076;9.118;2023-08-31T02:54:35;3.03;;;2.83;;
8066;SDS011;4076;48.076;9.118;2023-08-31T02:57:01;3.80;;;3.50;;
8066;SDS011;4076;48.076;9.118;2023-08-31T02:59:27;3.43;;;2.90;;
8066;SDS011;4076;48.076;9.118;2023-08-31T03:01:52;3.43;;;3.23;;
8066;SDS011;4076;48.076;9.118;2023-08-31T03:04:18;3.17;;;2.97;;
8066;SDS011;4076;48.076;9.118;2023-08-31T03:06:43;2.90;;;2.70;;
8066;SDS011;4076;48.076;9.118;2023-08-31T03:09:10;1.87;;;1.77;;
8066;SDS011;4076;48.076;9.118;2023-08-31T03:11:36;2.13;;;2.03;;
8066;SDS011;4076;48.076;9.118;2023-08-31T03:14:01;1.50;;;1.40;;
8066;SDS011;4076;48.076;9.118;2023-08-31T03:16:27;3.90;;;2.70;;
8066;SDS011;4076;48.076;9.118;2023-08-31T03:18:52;4.47;;;4.03;;
8066;SDS011;4076;48.076;9.118;2023-08-31T03:21:18;2.10;;;2.00;;
8066;SDS011;4076;48.076;9.118;2023-08-31T03:23:44;3.20;;;2.20;;
8066;SDS011;4076;48.076;9.118;2023-08-31T03:26:10;2.37;;;2.27;;
8066;SDS011;4076;48.076;9.118;2023-08-31T03:28:36;2.30;;;2.10;;
8066;SDS011;4076;48.076;9.118;2023-08-31T03:31:03;2.33;;;2.20;;
8066;SDS011;4076;48.076;9.118;2023-08-31T03:33:29;1.90;;;1.80;;
8066;SDS011;4076;48.076;9.118;2023-08-31T03:35:59;2.60;;;2.40;;
8066;SDS011;4076;48.076;9.118;2023-08-31T03:38:25;3.23;;;2.93;;
8066;SDS011;4076;48.076;9.118;2023-08-31T03:40:54;4.07;;;3.00;;
8066;SDS011;4076;48.076;9.118;2023-08-31T03:43:20;2.20;;;2.10;;
8066;SDS011;4076;48.076;9.118;2023-08-31T03:45:46;3.20;;;2.37;;
8066;SDS011;4076;48.076;9.118;2023-08-31T03:48:11;2.47;;;2.23;;
8066;SDS011;4076;48.076;9.118;2023-08-31T03:50:37;2.90;;;2.67;;
8066;SDS011;4076;48.076;9.118;2023-08-31T03:53:02;2.53;;;2.33;;
8066;SDS011;4076;48.076;9.118;2023-08-31T03:55:28;2.53;;;2.33;;
8066;SDS011;4076;48.076;9.118;2023-08-31T03:57:54;8.80;;;2.70;;
8066;SDS011;4076;48.076;9.118;2023-08-31T04:00:19;2.90;;;2.70;;
8066;SDS011;4076;48.076;9.118;2023-08-31T04:02:45;3.00;;;2.80;;
8066;SDS011;4076;48.076;9.118;2023-08-31T04:05:10;2.87;;;2.60;;
8066;SDS011;4076;48.076;9.118;2023-08-31T04:07:36;3.00;;;2.10;;
8066;SDS011;4076;48.076;9.118;2023-08-31T04:10:02;2.03;;;1.93;;
8066;SDS011;4076;48.076;9.118;2023-08-31T04:12:28;4.63;;;3.27;;
8066;SDS011;4076;48.076;9.118;2023-08-31T04:14:55;3.20;;;3.00;;
8066;SDS011;4076;48.076;9.118;2023-08-31T04:17:21;2.40;;;2.30;;
8066;SDS011;4076;48.076;9.118;2023-08-31T04:19:46;3.37;;;3.10;;
8066;SDS011;4076;48.076;9.118;2023-08-31T04:22:12;4.33;;;3.93;;
8066;SDS011;4076;48.076;9.118;2023-08-31T04:24:38;3.10;;;2.90;;
8066;SDS011;4076;48.076;9.118;2023-08-31T04:27:03;4.17;;;3.40;;
8066;SDS011;4076;48.076;9.118;2023-08-31T04:29:29;2.90;;;2.70;;
8066;SDS011;4076;48.076;9.118;2023-08-31T04:31:54;3.23;;;3.03;;
8066;SDS011;4076;48.076;9.118;2023-08-31T04:34:20;2.50;;;2.40;;
8066;SDS011;4076;48.076;9.118;2023-08-31T04:36:46;3.53;;;3.33;;
8066;SDS011;4076;48.076;9.118;2023-08-31T04:39:11;3.93;;;3.30;;
8066;SDS011;4076;48.076;9.118;2023-08-31T04:41:37;3.10;;;2.90;;
8066;SDS011;4076;48.076;9.118;2023-08-31T04:44:02;3.30;;;3.10;;
8066;SDS011;4076;48.076;9.118;2023-08-31T04:46:28;3.50;;;3.30;;
8066;SDS011;4076;48.076;9.118;2023-08-31T04:48:54;3.20;;;3.00;;
8066;SDS011;4076;48.076;9.118;2023-08-31T04:51:26;4.87;;;4.47;;
8066;SDS011;4076;48.076;9.118;2023-08-31T04:54:06;4.70;;;3.27;;
8066;SDS011;4076;48.076;9.118;2023-08-31T04:56:32;3.10;;;2.90;;
8066;SDS011;4076;48.076;9.118;2023-08-31T04:58:58;4.47;;;2.60;;
8066;SDS011;4076;48.076;9.118;2023-08-31T05:01:24;2.30;;;2.10;;
8066;SDS011;4076;48.076;9.118;2023-08-31T05:03:50;2.27;;;2.07;;
8066;SDS011;4076;48.076;9.118;2023-08-31T05:06:15;4.00;;;3.80;;
8066;SDS011;4076;48.076;9.118;2023-08-31T05:08:41;5.03;;;3.80;;
8066;SDS011;4076;48.076;9.118;2023-08-31T05:11:07;2.87;;;2.67;;
8066;SDS011;4076;48.076;9.118;2023-08-31T05:13:32;2.73;;;2.60;;
8066;SDS011;4076;48.076;9.118;2023-08-31T05:15:58;3.07;;;2.87;;
8066;SDS011;4076;48.076;9.118;2023-08-31T05:18:24;2.83;;;2.63;;
8066;SDS011;4076;48.076;9.118;2023-08-31T05:20:49;2.57;;;2.47;;
8066;SDS011;4076;48.076;9.118;2023-08-31T05:23:15;3.57;;;3.27;;
8066;SDS011;4076;48.076;9.118;2023-08-31T05:25:44;2.47;;;2.37;;
8066;SDS011;4076;48.076;9.118;2023-08-31T05:28:09;2.50;;;2.30;;
8066;SDS011;4076;48.076;9.118;2023-08-31T05:30:35;2.33;;;2.23;;
8066;SDS011;4076;48.076;9.118;2023-08-31T05:33:01;2.60;;;2.40;;
8066;SDS011;4076;48.076;9.118;2023-08-31T05:35:26;2.30;;;2.10;;
8066;SDS011;4076;48.076;9.118;2023-08-31T05:37:52;3.43;;;2.80;;
8066;SDS011;4076;48.076;9.118;2023-08-31T05:40:17;3.63;;;3.43;;
8066;SDS011;4076;48.076;9.118;2023-08-31T05:42:43;2.70;;;2.53;;
8066;SDS011;4076;48.076;9.118;2023-08-31T05:45:09;3.70;;;3.37;;
8066;SDS011;4076;48.076;9.118;2023-08-31T05:47:35;2.80;;;2.60;;
8066;SDS011;4076;48.076;9.118;2023-08-31T05:50:01;2.40;;;2.20;;
8066;SDS011;4076;48.076;9.118;2023-08-31T05:52:27;2.20;;;2.10;;
8066;SDS011;4076;48.076;9.118;2023-08-31T05:54:52;3.20;;;2.20;;
8066;SDS011;4076;48.076;9.118;2023-08-31T05:57:19;3.87;;;3.67;;
8066;SDS011;4076;48.076;9.118;2023-08-31T05:59:45;3.47;;;3.17;;
8066;SDS011;4076;48.076;9.118;2023-08-31T06:02:12;1.90;;;1.80;;
8066;SDS011;4076;48.076;9.118;2023-08-31T06:04:37;2.77;;;2.57;;
8066;SDS011;4076;48.076;9.118;2023-08-31T06:07:03;2.30;;;2.20;;
8066;SDS011;4076;48.076;9.118;2023-08-31T06:09:28;4.50;;;4.00;;
8066;SDS011;4076;48.076;9.118;2023-08-31T06:11:54;2.07;;;1.97;;
8066;SDS011;4076;48.076;9.118;2023-08-31T06:14:19;2.70;;;2.40;;
8066;SDS011;4076;48.076;9.118;2023-08-31T06:16:45;3.27;;;2.70;;
8066;SDS011;4076;48.076;9.118;2023-08-31T06:19:11;2.30;;;2.10;;
8066;SDS011;4076;48.076;9.118;2023-08-31T06:21:40;2.27;;;2.07;;
8066;SDS011;4076;48.076;9.118;2023-08-31T06:24:06;1.97;;;1.87;;
8066;SDS011;4076;48.076;9.118;2023-08-31T06:26:34;2.60;;;2.50;;
8066;SDS011;4076;48.076;9.118;2023-08-31T06:29:00;2.73;;;2.53;;
8066;SDS011;4076;48.076;9.118;2023-08-31T06:31:28;2.23;;;2.13;;
8066;SDS011;4076;48.076;9.118;2023-08-31T06:33:54;2.43;;;2.23;;
8066;SDS011;4076;48.076;9.118;2023-08-31T06:36:19;2.70;;;2.50;;
8066;SDS011;4076;48.076;9.118;2023-08-31T06:38:45;2.13;;;2.03;;
8066;SDS011;4076;48.076;9.118;2023-08-31T06:41:10;2.43;;;2.23;;
8066;SDS011;4076;48.076;9.118;2023-08-31T06:43:36;3.67;;;3.40;;
8066;SDS011;4076;48.076;9.118;2023-08-31T06:46:01;2.47;;;2.27;;
8066;SDS011;4076;48.076;9.118;2023-08-31T06:48:27;2.50;;;2.30;;
8066;SDS011;4076;48.076;9.118;2023-08-31T06:50:53;3.40;;;3.10;;
8066;SDS011;4076;48.076;9.118;2023-08-31T06:53:19;2.30;;;2.10;;
8066;SDS011;4076;48.076;9.118;2023-08-31T06:55:44;2.00;;;1.90;;
8066;SDS011;4076;48.076;9.118;2023-08-31T06:58:10;2.83;;;2.30;;
8066;SDS011;4076;48.076;9.118;2023-08-31T07:00:35;2.00;;;1.90;;
8066;SDS011;4076;48.076;9.118;2023-08-31T07:03:01;4.47;;;2.37;;
8066;SDS011;4076;48.076;9.118;2023-08-31T07:05:27;2.13;;;2.00;;
8066;SDS011;4076;48.076;9.118;2023-08-31T07:07:54;1.90;;;1.80;;
8066;SDS011;4076;48.076;9.118;2023-08-31T07:10:20;2.90;;;2.70;;
8066;SDS011;4076;48.076;9.118;2023-08-31T07:12:46;1.90;;;1.80;;
8066;SDS011;4076;48.076;9.118;2023-08-31T07:15:12;1.63;;;1.53;;
8066;SDS011;4076;48.076;9.118;2023-08-31T07:17:37;2.50;;;1.77;;
8066;SDS011;4076;48.076;9.118;2023-08-31T07:20:03;1.83;;;1.73;;
8066;SDS011;4076;48.076;9.118;2023-08-31T07:22:33;2.17;;;1.93;;
8066;SDS011;4076;48.076;9.118;2023-08-31T07:24:59;2.23;;;2.10;;
8066;SDS011;4076;48.076;9.118;2023-08-31T07:27:24;2.17;;;2.07;;
8066;SDS011;4076;48.076;9.118;2023-08-31T07:29:50;2.80;;;2.10;;
8066;SDS011;4076;48.076;9.118;2023-08-31T07:32:16;2.73;;;2.40;;
8066;SDS011;4076;48.076;9.118;2023-08-31T07:34:41;2.63;;;2.30;;
8066;SDS011;4076;48.076;9.118;2023-08-31T07:37:07;2.03;;;1.93;;
8066;SDS011;4076;48.076;9.118;2023-08-31T07:39:32;4.50;;;2.10;;
8066;SDS011;4076;48.076;9.118;2023-08-31T07:41:58;2.07;;;1.97;;
8066;SDS011;4076;48.076;9.118;2023-08-31T07:44:24;1.93;;;1.83;;
8066;SDS011;4076;48.076;9.118;2023-08-31T07:46:50;2.43;;;2.33;;
8066;SDS011;4076;48.076;9.118;2023-08-31T07:49:15;2.60;;;1.97;;
8066;SDS011;4076;48.076;9.118;2023-08-31T07:51:41;2.27;;;2.07;;
8066;SDS011;4076;48.076;9.118;2023-08-31T07:54:06;2.40;;;2.20;;
8066;SDS011;4076;48.076;9.118;2023-08-31T07:56:32;2.23;;;2.03;;
8066;SDS011;4076;48.076;9.118;2023-08-31T07:58:58;2.43;;;2.27;;
8066;SDS011;4076;48.076;9.118;2023-08-31T08:01:23;8.60;;;3.57;;
8066;SDS011;4076;48.076;9.118;2023-08-31T08:03:49;3.00;;;2.10;;
8066;SDS011;4076;48.076;9.118;2023-08-31T08:06:14;2.47;;;2.37;;
8066;SDS011;4076;48.076;9.118;2023-08-31T08:08:40;2.83;;;2.63;;
8066;SDS011;4076;48.076;9.118;2023-08-31T08:11:06;2.63;;;2.10;;
8066;SDS011;4076;48.076;9.118;2023-08-31T08:13:31;2.87;;;2.10;;
8066;SDS011;4076;48.076;9.118;2023-08-31T08:15:58;2.00;;;1.90;;
8066;SDS011;4076;48.076;9.118;2023-08-31T08:18:23;3.27;;;1.90;;
8066;SDS011;4076;48.076;9.118;2023-08-31T08:20:52;1.63;;;1.50;;
8066;SDS011;4076;48.076;9.118;2023-08-31T08:23:18;1.90;;;1.80;;
8066;SDS011;4076;48.076;9.118;2023-08-31T08:25:44;3.63;;;2.43;;
8066;SDS011;4076;48.076;9.118;2023-08-31T08:28:09;2.80;;;1.70;;
8066;SDS011;4076;48.076;9.118;2023-08-31T08:30:35;1.97;;;1.87;;
8066;SDS011;4076;48.076;9.118;2023-08-31T08:33:00;1.70;;;1.60;;
8066;SDS011;4076;48.076;9.118;2023-08-31T08:35:26;2.73;;;1.83;;
8066;SDS011;4076;48.076;9.118;2023-08-31T08:37:52;2.60;;;2.20;;
8066;SDS011;4076;48.076;9.118;2023-08-31T08:40:17;1.97;;;1.77;;
8066;SDS011;4076;48.076;9.118;2023-08-31T08:42:43;2.53;;;2.33;;
8066;SDS011;4076;48.076;9.118;2023-08-31T08:45:15;2.53;;;2.20;;
8066;SDS011;4076;48.076;9.118;2023-08-31T08:47:44;3.73;;;1.70;;
8066;SDS011;4076;48.076;9.118;2023-08-31T08:50:11;3.43;;;1.73;;
8066;SDS011;4076;48.076;9.118;2023-08-31T08:52:38;2.20;;;2.10;;
8066;SDS011;4076;48.076;9.118;2023-08-31T08:55:04;8.73;;;2.23;;
8066;SDS011;4076;48.076;9.118;2023-08-31T08:57:31;2.33;;;2.00;;
8066;SDS011;4076;48.076;9.118;2023-08-31T09:00:03;4.10;;;2.00;;
8066;SDS011;4076;48.076;9.118;2023-08-31T09:02:30;2.80;;;1.83;;
8066;SDS011;4076;48.076;9.118;2023-08-31T09:04:55;2.10;;;1.90;;
8066;SDS011;4076;48.076;9.118;2023-08-31T09:07:21;2.20;;;1.93;;
8066;SDS011;4076;48.076;9.118;2023-08-31T09:09:53;1.70;;;1.60;;
8066;SDS011;4076;48.076;9.118;2023-08-31T09:12:23;1.63;;;1.53;;
8066;SDS011;4076;48.076;9.118;2023-08-31T09:14:58;3.77;;;2.57;;
8066;SDS011;4076;48.076;9.118;2023-08-31T09:17:25;2.37;;;2.27;;
8066;SDS011;4076;48.076;9.118;2023-08-31T09:20:01;2.37;;;2.27;;
8066;SDS011;4076;48.076;9.118;2023-08-31T09:22:30;3.57;;;2.83;;
8066;SDS011;4076;48.076;9.118;2023-08-31T09:24:56;2.50;;;2.30;;
8066;SDS011;4076;48.076;9.118;2023-08-31T09:27:22;2.73;;;1.70;;
8066;SDS011;4076;48.076;9.118;2023-08-31T09:29:49;1.47;;;1.37;;
8066;SDS011;4076;48.076;9.118;2023-08-31T09:32:16;2.03;;;1.80;;
8066;SDS011;4076;48.076;9.118;2023-08-31T09:34:42;3.10;;;2.80;;
8066;SDS011;4076;48.076;9.118;2023-08-31T09:37:08;4.30;;;4.00;;
8066;SDS011;4076;48.076;9.118;2023-08-31T09:39:38;4.20;;;2.37;;
8066;SDS011;4076;48.076;9.118;2023-08-31T09:42:04;2.20;;;2.00;;
8066;SDS011;4076;48.076;9.118;2023-08-31T09:44:30;4.43;;;2.00;;
8066;SDS011;4076;48.076;9.118;2023-08-31T09:46:56;1.70;;;1.60;;
8066;SDS011;4076;48.076;9.118;2023-08-31T09:49:22;2.07;;;1.97;;
8066;SDS011;4076;48.076;9.118;2023-08-31T09:51:50;1.70;;;1.60;;
8066;SDS011;4076;48.076;9.118;2023-08-31T09:54:17;3.90;;;1.73;;
8066;SDS011;4076;48.076;9.118;2023-08-31T09:56:45;2.13;;;2.03;;
8066;SDS011;4076;48.076;9.118;2023-08-31T09:59:12;2.73;;;1.90;;
8066;SDS011;4076;48.076;9.118;2023-08-31T10:01:40;1.60;;;1.50;;
8066;SDS011;4076;48.076;9.118;2023-08-31T10:04:07;2.80;;;2.10;;
8066;SDS011;4076;48.076;9.118;2023-08-31T10:06:36;2.70;;;2.07;;
8066;SDS011;4076;48.076;9.118;2023-08-31T10:09:04;4.20;;;2.23;;
8066;SDS011;4076;48.076;9.118;2023-08-31T10:11:30;2.63;;;2.10;;
8066;SDS011;4076;48.076;9.118;2023-08-31T10:13:57;2.10;;;1.90;;
8066;SDS011;4076;48.076;9.118;2023-08-31T10:16:27;2.67;;;2.27;;
8066;SDS011;4076;48.076;9.118;2023-08-31T10:18:53;1.57;;;1.47;;
8066;SDS011;4076;48.076;9.118;2023-08-31T10:21:20;2.40;;;2.10;;
8066;SDS011;4076;48.076;9.118;2023-08-31T10:23:50;2.63;;;2.47;;
8066;SDS011;4076;48.076;9.118;2023-08-31T10:26:23;1.87;;;1.77;;
8066;SDS011;4076;48.076;9.118;2023-08-31T10:28:53;2.03;;;1.93;;
8066;SDS011;4076;48.076;9.118;2023-08-31T10:31:19;3.30;;;2.23;;
8066;SDS011;4076;48.076;9.118;2023-08-31T10:33:58;8.57;;;2.50;;
8066;SDS011;4076;48.076;9.118;2023-08-31T10:36:38;2.00;;;1.90;;
8066;SDS011;4076;48.076;9.118;2023-08-31T10:41:38;3.77;;;1.97;;
8066;SDS011;4076;48.076;9.118;2023-08-31T10:47:06;2.57;;;2.03;;
8066;SDS011;4076;48.076;9.118;2023-08-31T10:49:33;1.60;;;1.50;;
8066;SDS011;4076;48.076;9.118;2023-08-31T10:54:43;1.80;;;1.70;;
8066;SDS011;4076;48.076;9.118;2023-08-31T10:57:08;4.10;;;1.90;;
8066;SDS011;4076;48.076;9.118;2023-08-31T10:59:50;2.23;;;1.63;;
8066;SDS011;4076;48.076;9.118;2023-08-31T11:02:36;2.70;;;1.70;;
8066;SDS011;4076;48.076;9.118;2023-08-31T11:05:12;2.60;;;2.37;;
8066;SDS011;4076;48.076;9.118;2023-08-31T11:07:51;1.87;;;1.60;;
8066;SDS011;4076;48.076;9.118;2023-08-31T11:10:22;2.47;;;2.23;;
8066;SDS011;4076;48.076;9.118;2023-08-31T11:12:50;2.77;;;1.77;;
8066;SDS011;4076;48.076;9.118;2023-08-31T11:15:22;2.07;;;1.93;;
8066;SDS011;4076;48.076;9.118;2023-08-31T11:17:50;3.97;;;2.10;;
8066;SDS011;4076;48.076;9.118;2023-08-31T11:20:17;2.13;;;1.83;;
8066;SDS011;4076;48.076;9.118;2023-08-31T11:22:45;3.40;;;2.20;;
8066;SDS011;4076;48.076;9.118;2023-08-31T11:25:13;3.40;;;3.10;;
8066;SDS011;4076;48.076;9.118;2023-08-31T11:27:39;1.90;;;1.80;;
8066;SDS011;4076;48.076;9.118;2023-08-31T11:30:12;1.90;;;1.80;;
8066;SDS011;4076;48.076;9.118;2023-08-31T11:32:43;4.53;;;1.87;;
8066;SDS011;4076;48.076;9.118;2023-08-31T11:35:13;1.93;;;1.83;;
8066;SDS011;4076;48.076;9.118;2023-08-31T11:37:41;2.40;;;1.93;;
8066;SDS011;4076;48.076;9.118;2023-08-31T11:40:08;1.73;;;1.40;;
8066;SDS011;4076;48.076;9.118;2023-08-31T11:42:34;2.43;;;1.93;;
8066;SDS011;4076;48.076;9.118;2023-08-31T11:44:59;1.60;;;1.50;;
8066;SDS011;4076;48.076;9.118;2023-08-31T11:47:25;2.03;;;1.47;;
8066;SDS011;4076;48.076;9.118;2023-08-31T11:49:51;2.20;;;1.90;;
8066;SDS011;4076;48.076;9.118;2023-08-31T11:52:17;2.07;;;1.60;;
8066;SDS011;4076;48.076;9.118;2023-08-31T11:54:43;2.20;;;2.00;;
8066;SDS011;4076;48.076;9.118;2023-08-31T11:57:10;2.53;;;1.57;;
8066;SDS011;4076;48.076;9.118;2023-08-31T11:59:37;3.70;;;1.97;;
8066;SDS011;4076;48.076;9.118;2023-08-31T12:02:07;1.77;;;1.63;;
8066;SDS011;4076;48.076;9.118;2023-08-31T12:04:33;1.70;;;1.60;;
8066;SDS011;4076;48.076;9.118;2023-08-31T12:07:09;2.50;;;2.40;;
8066;SDS011;4076;48.076;9.118;2023-08-31T12:09:35;1.60;;;1.47;;
8066;SDS011;4076;48.076;9.118;2023-08-31T12:12:01;1.70;;;1.60;;
8066;SDS011;4076;48.076;9.118;2023-08-31T12:14:29;1.50;;;1.40;;
8066;SDS011;4076;48.076;9.118;2023-08-31T12:17:02;2.20;;;2.00;;
8066;SDS011;4076;48.076;9.118;2023-08-31T12:19:30;4.23;;;1.90;;
8066;SDS011;4076;48.076;9.118;2023-08-31T12:21:57;2.00;;;1.90;;
8066;SDS011;4076;48.076;9.118;2023-08-31T12:24:22;1.77;;;1.63;;
8066;SDS011;4076;48.076;9.118;2023-08-31T12:26:51;1.70;;;1.60;;
8066;SDS011;4076;48.076;9.118;2023-08-31T12:29:21;1.53;;;1.40;;
8066;SDS011;4076;48.076;9.118;2023-08-31T12:31:47;4.17;;;1.70;;
8066;SDS011;4076;48.076;9.118;2023-08-31T12:34:14;1.63;;;1.53;;
8066;SDS011;4076;48.076;9.118;2023-08-31T12:36:40;4.37;;;2.17;;
8066;SDS011;4076;48.076;9.118;2023-08-31T12:39:06;1.63;;;1.53;;
8066;SDS011;4076;48.076;9.118;2023-08-31T12:41:35;1.83;;;1.73;;
8066;SDS011;4076;48.076;9.118;2023-08-31T12:44:04;2.20;;;2.00;;
8066;SDS011;4076;48.076;9.118;2023-08-31T12:46:33;1.83;;;1.73;;
8066;SDS011;4076;48.076;9.118;2023-08-31T12:49:00;2.07;;;1.60;;
8066;SDS011;4076;48.076;9.118;2023-08-31T12:51:26;2.50;;;2.30;;
8066;SDS011;4076;48.076;9.118;2023-08-31T12:53:52;1.67;;;1.57;;
8066;SDS011;4076;48.076;9.118;2023-08-31T12:56:18;1.57;;;1.30;;
8066;SDS011;4076;48.076;9.118;2023-08-31T12:58:50;2.87;;;1.67;;
8066;SDS011;4076;48.076;9.118;2023-08-31T13:01:17;2.27;;;2.03;;
8066;SDS011;4076;48.076;9.118;2023-08-31T13:03:44;2.20;;;1.60;;
8066;SDS011;4076;48.076;9.118;2023-08-31T13:06:10;1.60;;;1.50;;
8066;SDS011;4076;48.076;9.118;2023-08-31T13:08:36;3.27;;;1.80;;
8066;SDS011;4076;48.076;9.118;2023-08-31T13:11:02;57.13;;;46.03;;
8066;SDS011;4076;48.076;9.118;2023-08-31T13:13:29;89.83;;;64.70;;
8066;SDS011;4076;48.076;9.118;2023-08-31T13:15:56;75.30;;;57.53;;
8066;SDS011;4076;48.076;9.118;2023-08-31T13:18:22;45.80;;;37.03;;
8066;SDS011;4076;48.076;9.118;2023-08-31T13:20:51;28.23;;;22.13;;
8066;SDS011;4076;48.076;9.118;2023-08-31T13:23:18;66.13;;;54.13;;
8066;SDS011;4076;48.076;9.118;2023-08-31T13:25:44;30.07;;;27.17;;
8066;SDS011;4076;48.076;9.118;2023-08-31T13:28:10;28.30;;;23.43;;
8066;SDS011;4076;48.076;9.118;2023-08-31T13:30:36;22.00;;;19.70;;
8066;SDS011;4076;48.076;9.118;2023-08-31T13:33:02;12.03;;;10.80;;
8066;SDS011;4076;48.076;9.118;2023-08-31T13:35:29;20.37;;;16.93;;
8066;SDS011;4076;48.076;9.118;2023-08-31T13:37:55;21.47;;;19.23;;
8066;SDS011;4076;48.076;9.118;2023-08-31T13:40:20;21.23;;;19.03;;
8066;SDS011;4076;48.076;9.118;2023-08-31T13:42:58;10.13;;;9.30;;
8066;SDS011;4076;48.076;9.118;2023-08-31T13:45:31;6.93;;;6.33;;
8066;SDS011;4076;48.076;9.118;2023-08-31T13:47:57;2.80;;;2.60;;
8066;SDS011;4076;48.076;9.118;2023-08-31T13:50:25;1.87;;;1.77;;
8066;SDS011;4076;48.076;9.118;2023-08-31T13:52:54;2.20;;;1.60;;
8066;SDS011;4076;48.076;9.118;2023-08-31T13:55:19;3.40;;;3.10;;
8066;SDS011;4076;48.076;9.118;2023-08-31T13:57:45;2.73;;;2.47;;
8066;SDS011;4076;48.076;9.118;2023-08-31T14:00:11;2.07;;;1.80;;
8066;SDS011;4076;48.076;9.118;2023-08-31T14:02:37;2.40;;;2.20;;
8066;SDS011;4076;48.076;9.118;2023-08-31T14:05:04;7.63;;;2.60;;
8066;SDS011;4076;48.076;9.118;2023-08-31T14:07:31;2.03;;;1.93;;
8066;SDS011;4076;48.076;9.118;2023-08-31T14:09:58;2.17;;;1.90;;
8066;SDS011;4076;48.076;9.118;2023-08-31T14:12:23;4.77;;;1.90;;
8066;SDS011;4076;48.076;9.118;2023-08-31T14:14:50;1.80;;;1.70;;
8066;SDS011;4076;48.076;9.118;2023-08-31T14:17:16;3.30;;;2.40;;
8066;SDS011;4076;48.076;9.118;2023-08-31T14:19:42;1.77;;;1.67;;
8066;SDS011;4076;48.076;9.118;2023-08-31T14:22:07;2.30;;;2.10;;
8066;SDS011;4076;48.076;9.118;2023-08-31T14:24:35;2.53;;;2.33;;
8066;SDS011;4076;48.076;9.118;2023-08-31T14:27:01;2.30;;;2.03;;
8066;SDS011;4076;48.076;9.118;2023-08-31T14:29:28;2.73;;;2.23;;
8066;SDS011;4076;48.076;9.118;2023-08-31T14:31:53;2.33;;;2.17;;
8066;SDS011;4076;48.076;9.118;2023-08-31T14:34:20;2.23;;;2.03;;
8066;SDS011;4076;48.076;9.118;2023-08-31T14:36:46;2.57;;;2.37;;
8066;SDS011;4076;48.076;9.118;2023-08-31T14:39:12;2.80;;;2.07;;
8066;SDS011;4076;48.076;9.118;2023-08-31T14:41:37;2.53;;;2.27;;
8066;SDS011;4076;48.076;9.118;2023-08-31T14:44:03;1.90;;;1.60;;
8066;SDS011;4076;48.076;9.118;2023-08-31T14:46:29;5.00;;;2.23;;
8066;SDS011;4076;48.076;9.118;2023-08-31T14:48:56;2.00;;;1.90;;
8066;SDS011;4076;48.076;9.118;2023-08-31T14:51:21;2.33;;;1.70;;
8066;SDS011;4076;48.076;9.118;2023-08-31T14:53:47;2.43;;;1.60;;
8066;SDS011;4076;48.076;9.118;2023-08-31T14:56:12;1.80;;;1.70;;
8066;SDS011;4076;48.076;9.118;2023-08-31T14:58:38;2.10;;;1.90;;
8066;SDS011;4076;48.076;9.118;2023-08-31T15:01:03;1.90;;;1.80;;
8066;SDS011;4076;48.076;9.118;2023-08-31T15:03:29;1.53;;;1.30;;
8066;SDS011;4076;48.076;9.118;2023-08-31T15:05:55;1.90;;;1.80;;
8066;SDS011;4076;48.076;9.118;2023-08-31T15:08:21;1.87;;;1.67;;
8066;SDS011;4076;48.076;9.118;2023-08-31T15:11:00;2.13;;;1.93;;
8066;SDS011;4076;48.076;9.118;2023-08-31T15:13:26;1.90;;;1.80;;
8066;SDS011;4076;48.076;9.118;2023-08-31T15:15:51;2.13;;;1.93;;
8066;SDS011;4076;48.076;9.118;2023-08-31T15:18:17;1.53;;;1.43;;
8066;SDS011;4076;48.076;9.118;2023-08-31T15:20:42;1.77;;;1.67;;
8066;SDS011;4076;48.076;9.118;2023-08-31T15:23:08;2.23;;;2.13;;
8066;SDS011;4076;48.076;9.118;2023-08-31T15:25:33;1.90;;;1.80;;
8066;SDS011;4076;48.076;9.118;2023-08-31T15:27:59;2.47;;;2.27;;
8066;SDS011;4076;48.076;9.118;2023-08-31T15:30:24;2.90;;;2.40;;